MUC weather

Public forecast

Using degrees Celsius for public forecast. Weather courtesy of forecast.io.

Current aviation weather report (METAR) for Munich Airport

Retrieved 2020/08/13 02:20 UTC (27 minutes ago):

EDDM 130220Z 05001KT CAVOK 15/15 Q1015 NOSIG

Aviation forecast (TAF) for Munich Airport

Retrieved 2020-08-13 00:27 UTC (2 hours ago):

TAF EDDM 122300Z 1300/1406 VRB02KT CAVOK BECMG 1307/1309 26005KT PROB30 TEMPO 1311/1315 -TSRA FEW050CB BECMG 1317/1319 VRB02KT BECMG 1405/1406 27010KT